• Join FlightAware (Why Join?)
  • Login
  • US Flag 
05:27PM EDT


 

Airport Tracker/Info


-or-


 

Live Flight TrackerFlight Track Log ✈ N110LD ✈ 11-Jun-2013 ✈ KBHM - KARR

Flight Track Log - Related Links

Times and Time Zones

All times are in EDT time to prevent confusion due to time zone crossing. See the N110LD flight status page for this flight to view local times or setup timezone preferences in your user account.

Time Position Orientation Groundspeed Altitude Reporting Facility
EDT Latitude Longitude Course Direction KTS MPH feet Rate Location/Type
10:43AM 33.5336 -86.8100 236° Southwest 174 200 2,100  Level Atlanta Center
10:44AM 33.5450 -86.8603 285° West 188 216 4,100 1,980 Climbing Atlanta Center
10:45AM 33.6008 -86.8794 344° North 168 193 6,300 1,920 Climbing Atlanta Center
10:46AM 33.6611 -86.8864 355° North 192 221 8,000 1,620 Climbing Atlanta Center
10:47AM 33.7236 -86.8986 351° North 206 237 9,600 1,620 Climbing Atlanta Center
10:49AM 33.8125 -86.9347 341° North 227 261 12,300 1,560 Climbing Memphis Center
10:50AM 33.8692 -86.9525 345° North 216 249 13,700 1,320 Climbing Memphis Center
10:51AM 33.9281 -86.9675 348° North 211 243 15,000 1,200 Climbing Memphis Center
10:52AM 33.9892 -86.9853 346° North 211 243 16,200 1,200 Climbing Memphis Center
10:53AM 34.0500 -87.0003 348° North 217 250 17,400 1,200 Climbing Memphis Center
10:54AM 34.1133 -87.0281 340° North 239 275 18,600 1,140 Climbing Memphis Center
10:55AM 34.1761 -87.0356 354° North 227 261 19,700 1,140 Climbing Memphis Center
10:56AM 34.2392 -87.0508 349° North 227 261 20,900 1,140 Climbing Memphis Center
10:57AM 34.3039 -87.0483 North 232 267 22,000 1,080 Climbing Memphis Center
10:58AM 34.3772 -87.0656 349° North 237 273 23,100 1,020 Climbing Memphis Center
10:59AM 34.4442 -87.0681 358° North 237 273 24,100 1,020 Climbing Memphis Center
11:00AM 34.5133 -87.0753 355° North 237 273 25,200 1,020 Climbing Memphis Center
11:01AM 34.5825 -87.0906 350° North 237 273 26,200 1,020 Climbing Memphis Center
11:02AM 34.6514 -87.0978 355° North 243 280 27,300 960 Climbing Memphis Center
11:03AM 34.7164 -87.1106 351° North 238 274 28,200 840 Climbing Memphis Center
11:04AM 34.7814 -87.1181 355° North 238 274 29,000 720 Climbing Memphis Center
11:05AM 34.8483 -87.1256 355° North 238 274 29,700 720 Climbing Memphis Center
11:06AM 34.9133 -87.1333 354° North 238 274 30,500 600 Climbing Memphis Center
11:07AM 34.9719 -87.1411 354° North 238 274 31,000 540 Climbing Memphis Center
11:08AM 35.0389 -87.1539 351° North 238 274 31,600 480 Climbing Memphis Center
11:09AM 35.1019 -87.1692 349° North 238 274 32,000 180 Climbing Memphis Center
11:10AM 35.1814 -87.1814 353° North 250 288 32,000  Level Memphis Center
11:11AM 35.2550 -87.1964 351° North 255 293 32,000  Level Memphis Center
11:12AM 35.3303 -87.2114 351° North 261 300 32,000  Level Memphis Center
11:13AM 35.4039 -87.2289 349° North 261 300 32,000  Level Memphis Center
11:14AM 35.4833 -87.2439 351° North 272 313 32,000  Level Memphis Center
11:15AM 35.5611 -87.2614 350° North 278 320 32,000  Level Memphis Center
11:16AM 35.6386 -87.2739 353° North 278 320 32,000  Level Memphis Center
11:17AM 35.7161 -87.2889 351° North 278 320 32,000  Level Memphis Center
11:18AM 35.8125 -87.3108 350° North 278 320 32,000  Level Memphis Center
11:19AM 35.8881 -87.3286 349° North 278 320 32,000  Level Memphis Center
11:20AM 35.9678 -87.3461 350° North 278 320 32,000  Level Memphis Center
11:21AM 36.0472 -87.3586 353° North 283 326 32,000  Level Memphis Center
11:22AM 36.1247 -87.3764 350° North 283 326 32,000  Level Memphis Center
11:23AM 36.1939 -87.3892 352° North 278 320 32,000  Level Memphis Center
11:24AM 36.2714 -87.4069 350° North 278 320 32,000  Level Memphis Center
11:25AM 36.3489 -87.4222 351° North 278 320 32,000  Level Memphis Center
11:26AM 36.4264 -87.4375 351° North 278 320 32,000  Level Memphis Center
11:27AM 36.5039 -87.4528 351° North 278 320 32,000  Level Memphis Center
11:28AM 36.5878 -87.4731 349° North 278 320 32,000  Level Memphis Center
11:29AM 36.6653 -87.4883 351° North 284 327 32,000  Level Memphis Center
11:30AM 36.7428 -87.5036 351° North 279 321 32,000  Level Memphis Center
11:31AM 36.8203 -87.5189 351° North 279 321 32,000  Level Memphis Center
11:32AM 36.8997 -87.5394 348° North 279 321 32,000  Level Memphis Center
11:34AM 37.0303 -87.5639 351° North 287 330 32,000  Level Indianapolis Center
11:35AM 37.1083 -87.5800 351° North 284 327 32,000  Level Indianapolis Center
11:36AM 37.1861 -87.5981 350° North 281 323 32,000  Level Indianapolis Center
11:37AM 37.2647 -87.6153 350° North 282 325 32,000  Level Indianapolis Center
11:38AM 37.3561 -87.6342 351° North 282 325 32,000  Level Indianapolis Center
11:39AM 37.4342 -87.6503 351° North 282 325 32,000  Level Indianapolis Center
11:40AM 37.5131 -87.6667 351° North 284 327 32,000  Level Indianapolis Center
11:41AM 37.5906 -87.6847 350° North 282 325 32,000  Level Indianapolis Center
11:42AM 37.6681 -87.7031 349° North 280 322 32,000  Level Indianapolis Center
11:43AM 37.7456 -87.7197 350° North 281 323 32,000  Level Indianapolis Center
11:44AM 37.8233 -87.7364 350° North 280 322 32,000  Level Indianapolis Center
11:45AM 37.9019 -87.7550 349° North 283 326 32,000  Level Indianapolis Center
11:46AM 37.9792 -87.7694 352° North 279 321 32,000  Level Indianapolis Center
11:47AM 38.0578 -87.7781 355° North 281 323 32,000  Level Indianapolis Center
11:48AM 38.1508 -87.7914 354° North 279 321 32,000  Level Indianapolis Center
11:49AM 38.2278 -87.8019 354° North 277 319 32,000  Level Indianapolis Center
11:50AM 38.3053 -87.8158 352° North 278 320 32,000 -120 Level Indianapolis Center
11:51AM 38.3842 -87.8269 354° North 281 323 31,800 -480 Descending Indianapolis Center
11:52AM 38.4669 -87.8258 North 292 336 31,100 -540 Descending Indianapolis Center
11:53AM 38.5500 -87.7900 19° North 309 356 30,700 -420 Descending Indianapolis Center
11:54AM 38.6331 -87.7614 15° North 308 354 30,300 -540 Descending Indianapolis Center
11:55AM 38.7178 -87.7386 12° North 308 354 29,600 -660 Descending Indianapolis Center
11:56AM 38.8219 -87.7111 12° North 315 362 29,000 -300 Descending Indianapolis Center
11:57AM 38.9053 -87.6869 13° North 309 356 29,000  Level Indianapolis Center
11:58AM 38.9886 -87.6633 12° North 305 351 29,000  Level Indianapolis Center
11:59AM 39.0672 -87.6306 18° North 298 343 29,000  Level Indianapolis Center
12:00PM 39.1467 -87.5986 17° North 297 342 29,000  Level Indianapolis Center
12:01PM 39.2261 -87.5706 15° North 295 339 29,000  Level Indianapolis Center
12:02PM 39.3064 -87.5383 17° North 298 343 29,000  Level Indianapolis Center
12:04PM 39.3858 -87.5078 17° North 298 343 29,000  Level Indianapolis Center
12:05PM 39.4819 -87.4725 16° North 296 341 29,000  Level Indianapolis Center
12:06PM 39.5617 -87.4739 359° North 300 345 29,100 -60 Climbing Indianapolis Center
12:07PM 39.6369 -87.5106 339° North 292 336 28,900 -540 Descending Indianapolis Center
12:08PM 39.7178 -87.5464 341° North 301 346 28,100 -600 Descending Indianapolis Center
12:09PM 39.8019 -87.5806 343° North 311 358 27,700 -600 Descending Indianapolis Center
12:10PM 39.8847 -87.6161 342° North 312 359 26,900 -900 Descending Indianapolis Center
12:11PM 39.9725 -87.6514 343° North 322 371 25,900 -1,080 Descending Indianapolis Center
12:12PM 40.0614 -87.6833 345° North 328 377 24,700 -1,200 Descending Indianapolis Center
12:13PM 40.1678 -87.7258 343° North 332 382 23,500 -1,020 Descending Indianapolis Center
12:14PM 40.2556 -87.7589 344° North 329 379 22,600 -900 Descending Indianapolis Center
12:15PM 40.3406 -87.7922 343° North 324 373 21,700 -900 Descending Indianapolis Center
12:16PM 40.4278 -87.8231 345° North 322 371 20,800 -840 Descending Indianapolis Center
12:17PM 40.5142 -87.8508 346° North 321 369 20,000 -780 Descending Indianapolis Center
12:18PM 40.5972 -87.8828 344° North 316 364 19,300 -1,020 Descending Indianapolis Center
12:19PM 40.6800 -87.9158 343° North 312 359 18,000 -1,380 Descending Indianapolis Center
12:20PM 40.7625 -87.9456 345° North 309 356 16,500 -1,680 Descending Indianapolis Center
12:21PM 40.8403 -87.9719 346° North 299 344 14,600 -2,220 Descending Indianapolis Center
12:21PM 40.8744 -87.9903 338° Northwest 286 329 13,700 -2,460 Descending Chicago Center
12:22PM 40.9469 -88.0200 343° North 277 319 11,500 -2,040 Descending Chicago Center
12:23PM 41.0228 -88.0439 347° North 280 322 9,500 -1,800 Descending Chicago Center
12:24PM 41.0964 -88.0717 344° North 278 320 7,800 -1,740 Descending Chicago Center
12:25PM 41.1686 -88.1019 342° North 273 314 5,900 -1,800 Descending Chicago Center
12:26PM 41.2406 -88.1286 344° North 270 311 4,100 -960 Descending Chicago Center
12:28PM 41.3214 -88.1592 344° North 256 295 4,000 -60 Descending Chicago Center
12:29PM 41.3819 -88.1819 344° North 234 269 4,000  Level Chicago Center
12:30PM 41.4414 -88.2036 345° North 223 257 4,000  Level Chicago Center
12:31PM 41.4944 -88.2392 333° Northwest 212 244 4,000 -240 Level Chicago Center
12:32PM 41.5497 -88.2633 342° North 216 249 3,600 -480 Descending Chicago Center
12:33PM 41.6139 -88.2653 359° North 227 261 3,100 -540 Descending Chicago Center
12:34PM 41.6703 -88.2675 358° North 218 251 2,600 -300 Descending Chicago Center
12:35PM 41.7233 -88.2689 359° North 180 207 2,500 -60 Descending Chicago Center
12:36PM 41.7492 -88.2986 319° Northwest 169 194 2,500  Level Chicago Center
12:37PM 41.7683 -88.3519 296° West 162 186 2,600 -420 Climbing Chicago Center
12:38PM 41.7694 -88.4108 271° West 162 186 1,700 -840 Descending Chicago Center
12:39PM 41.7689 -88.4556 269° West 144 166 900 -780 Descending Chicago Center